首页
METAR-TAF:

METAR-TAF

机场 :

尼诺伊·阿基诺国际机场

马尼拉, 菲律宾

纬度: 14-31N, 经度: 121-00E, 海拔: 14米

当前天气观测

该预报发布于11分钟前的00:00 UTC
风速6节,风向西转西南
温度 27°C
湿度 100%
气压 1004 hPa
能見度: 9000
散云层高于2000英尺
阴天层高于8000英尺
小雨

METAR: RPLL 170000Z 24006KT 9000 -RA SCT020 OVC080 27/27 Q1004 NOSIG RMK A2965

时间: 08:11 (00:11 UTC)

预报

该预报发布于1小时和11分钟前的23:00 UTC
预报有效从17日的 00点(UTC)到 18日的 06点(UTC)
风速7节,风向西转西南
能见度10公里或以上
少量云层高于2300英尺
多云层高于10000英尺
短暂存在
从 17日的 00点(UTC)到 17日的 06点(UTC)
风速13节,风向西
能見度: 9000
散云层高于2200英尺
阴天层高于9000英尺
小阵雨
短暂存在
从 17日的 06点(UTC)到 17日的 12点(UTC)
风速12节,风向西南
能見度: 8000
散云层高于2000英尺
阴天层高于8000英尺
小雨

TAF: RPLL 162300Z 1700/1806 25007KT 9999 FEW023 BKN100 TX30/1706Z TN25/1722Z TEMPO 1700/1706 26013KT 9000 -SHRA SCT022 OVC090 TEMPO 1706/1712 22012KT 8000 -RA SCT020 OVC080

超过4000个机场的气象观测和天气预报(METAR&TAF报告)。

可查询的气象台以黄色和红色小点在地图上表示。

将鼠标移到小点上方,可查看气象台名称。

然后点击查看天气观测和预报。

如需切换地图:点击带黑十字的绿色按钮放大地图;点击带横线的绿色按钮缩小地图;或者点击绿色箭头查看邻近地区的地图。


METAR-TAF: